aviador You're here:

KELY Decoded Metar

ELY in NV, USA
Report Time2018-05-21 20:16:00
UTC Time2018-05-21 20:35:15
Flight Rules vfr VFR
Wind170° at 19 Gusting to 28 kt
W.Decomp.*RWY 18: 17.4 kt HW 7.7 kt LCW
RWY 12: 15.4 kt HW 11.2 kt RCW
W.Rank170° ranks 1
Current wind is above 170° avg. (9.5)
Visibility9999 m
Phenomena:N/A
Clouds:Scattered 095 Hf
Scattered 120 Hf
Expected CloudBase > 5,200 ft AGL from Temp-Dew spread
CeilingNone
Temp16°C (ISA +13)
Dew Point03°C (42% RH)
AAT7.7°C
QNH1014 hPa
Density Alt7,887 ft
Elevation6,253 ft
Report Wrong Elevation
Raw Report
KELY 212016Z AUTO 17019G28KT 10SM SCT095 SCT120 16/03 A2995=

Extra information for KELY:More info

Metar Taf Metar & Taf Last 4 Metars F.Rules Stats Wind Profile Meteogram Temp Stats Airport Information Weather charts Add Link Nearby VenuesMetar ALERT Operation Metar Decoded Social comments

AIRNAV info for KELY